Time;durP1;ratioP1;P1;durP2;ratioP2;P2;SDS_P1;SDS_P2;PMS_P1;PMS_P2;Temp;Humidity;BMP_temperature;BMP_pressure;BME280_temperature;BME280_humidity;BME280_pressure;Samples;Min_cycle;Max_cycle;Signal;HPM_P1;HPM_P2
2021/05/20 00:01:34;;;;;;;4.38;2.80;;;10.70;99.90;;;;;;5069801;28;20135;-65
2021/05/20 00:03:59;;;;;;;5.38;2.08;;;10.70;99.90;;;;;;5058610;28;20024;-65
2021/05/20 00:06:27;;;;;;;4.38;1.95;;;10.60;99.90;;;;;;5052156;28;20115;-65
2021/05/20 00:08:53;;;;;;;5.57;1.88;;;10.50;99.90;;;;;;5051230;28;20021;-65
2021/05/20 00:11:18;;;;;;;6.28;1.70;;;10.40;99.90;;;;;;5062487;28;20032;-65
2021/05/20 00:13:44;;;;;;;4.72;1.40;;;10.40;99.90;;;;;;5050413;28;20108;-65
2021/05/20 00:16:10;;;;;;;3.50;1.70;;;10.30;99.90;;;;;;5060888;28;20036;-65
2021/05/20 00:18:36;;;;;;;5.22;1.42;;;10.30;99.90;;;;;;5047045;28;20027;-65
2021/05/20 00:21:01;;;;;;;2.00;0.85;;;10.20;99.90;;;;;;5068198;28;20519;-65
2021/05/20 00:23:27;;;;;;;7.35;1.08;;;10.40;99.90;;;;;;5054425;28;20037;-65
2021/05/20 00:25:53;;;;;;;3.88;1.23;;;10.40;99.90;;;;;;5067185;28;20024;-65
2021/05/20 00:28:18;;;;;;;3.67;1.27;;;10.40;99.90;;;;;;5058638;28;20029;-65
2021/05/20 00:30:44;;;;;;;5.78;1.80;;;10.40;99.90;;;;;;5053221;28;20021;-65
2021/05/20 00:33:10;;;;;;;2.88;1.40;;;10.40;99.90;;;;;;5059241;28;20495;-65
2021/05/20 00:35:35;;;;;;;3.92;1.30;;;10.40;99.90;;;;;;5034198;28;20153;-65
2021/05/20 00:38:01;;;;;;;3.13;1.20;;;10.30;99.90;;;;;;5061725;28;20068;-65
2021/05/20 00:40:27;;;;;;;6.70;1.80;;;10.30;99.90;;;;;;5064154;28;20028;-65
2021/05/20 00:42:52;;;;;;;5.47;1.85;;;10.20;99.90;;;;;;5056241;28;20037;-65
2021/05/20 00:45:18;;;;;;;4.78;1.88;;;10.30;99.90;;;;;;5062431;28;20016;-66
2021/05/20 00:47:44;;;;;;;3.90;1.48;;;10.30;99.90;;;;;;5062922;28;20483;-65
2021/05/20 00:50:11;;;;;;;4.10;1.38;;;10.30;99.90;;;;;;5061750;28;20525;-64
2021/05/20 00:52:38;;;;;;;5.68;1.30;;;10.30;99.90;;;;;;5062464;28;20025;-65
2021/05/20 00:55:06;;;;;;;4.00;1.05;;;10.30;99.90;;;;;;5061151;28;20044;-65
2021/05/20 00:57:34;;;;;;;4.97;1.35;;;10.30;99.90;;;;;;5057265;28;20017;-65
2021/05/20 01:00:08;;;;;;;6.25;1.55;;;10.10;99.90;;;;;;5060738;28;20095;-65
2021/05/20 01:02:36;;;;;;;9.75;1.35;;;10.10;99.90;;;;;;5055182;28;20045;-65
2021/05/20 01:05:06;;;;;;;4.55;1.38;;;10.10;99.90;;;;;;5066585;28;20427;-65
2021/05/20 01:07:32;;;;;;;3.25;0.80;;;10.10;99.90;;;;;;5065228;28;20013;-65
2021/05/20 01:09:58;;;;;;;6.90;1.30;;;10.00;99.90;;;;;;5063317;28;20074;-65
2021/05/20 01:12:23;;;;;;;2.45;0.90;;;10.00;99.90;;;;;;5057884;28;20033;-65
2021/05/20 01:14:49;;;;;;;2.90;1.02;;;10.00;99.90;;;;;;5051032;28;20040;-64
2021/05/20 01:17:15;;;;;;;4.10;1.00;;;10.10;99.90;;;;;;5060066;28;20052;-65
2021/05/20 01:19:43;;;;;;;4.57;1.00;;;10.10;99.90;;;;;;5063424;28;20390;-65
2021/05/20 01:22:09;;;;;;;3.20;0.95;;;10.10;99.90;;;;;;5065535;28;20029;-65
2021/05/20 01:24:35;;;;;;;5.85;1.20;;;9.90;99.90;;;;;;5067631;28;20021;-64
2021/05/20 01:27:06;;;;;;;5.80;1.10;;;9.90;99.90;;;;;;5064161;28;20205;-65
2021/05/20 01:29:32;;;;;;;2.05;1.00;;;10.00;99.90;;;;;;5059754;28;20012;-64
2021/05/20 01:31:59;;;;;;;3.80;1.20;;;10.00;99.90;;;;;;5063560;28;20472;-65
2021/05/20 01:34:24;;;;;;;6.00;1.23;;;10.00;99.90;;;;;;5057756;28;20025;-65
2021/05/20 01:36:50;;;;;;;4.72;1.70;;;9.90;99.90;;;;;;5062329;28;20041;-64
2021/05/20 01:39:16;;;;;;;5.00;1.50;;;9.80;99.90;;;;;;5052166;28;20493;-65
2021/05/20 01:41:41;;;;;;;7.85;1.67;;;9.70;99.90;;;;;;5064325;28;20481;-65
2021/05/20 01:44:07;;;;;;;5.55;2.17;;;9.70;99.90;;;;;;5057437;28;20023;-65
2021/05/20 01:46:33;;;;;;;5.32;2.97;;;9.70;99.90;;;;;;5053071;28;20435;-65
2021/05/20 01:48:59;;;;;;;4.75;2.42;;;9.70;99.90;;;;;;5061386;28;20055;-65
2021/05/20 01:51:25;;;;;;;7.72;2.20;;;9.50;99.90;;;;;;5068095;28;20021;-65
2021/05/20 01:53:56;;;;;;;9.75;2.60;;;9.60;99.90;;;;;;5058144;28;20025;-65
2021/05/20 01:56:24;;;;;;;9.88;2.67;;;9.40;99.90;;;;;;5065705;28;20091;-64
2021/05/20 01:58:51;;;;;;;6.45;2.55;;;9.40;99.90;;;;;;5061270;28;20586;-64
2021/05/20 02:01:17;;;;;;;6.35;2.22;;;9.50;99.90;;;;;;5064720;28;20029;-65
2021/05/20 02:03:43;;;;;;;7.93;2.60;;;9.40;99.90;;;;;;5061126;28;20033;-65
2021/05/20 02:06:09;;;;;;;6.00;2.08;;;9.30;99.90;;;;;;5063501;28;20025;-65
2021/05/20 02:08:37;;;;;;;4.45;2.45;;;9.40;99.90;;;;;;5058948;28;20501;-65
2021/05/20 02:11:04;;;;;;;5.28;2.20;;;9.30;99.90;;;;;;5034354;28;20021;-64
2021/05/20 02:13:30;;;;;;;4.82;2.10;;;9.40;99.90;;;;;;5058226;28;20032;-66
2021/05/20 02:15:56;;;;;;;5.20;2.22;;;9.50;99.90;;;;;;5071413;28;20013;-64
2021/05/20 02:18:26;;;;;;;6.75;2.53;;;9.30;99.90;;;;;;5060094;28;20036;-65
2021/05/20 02:20:51;;;;;;;9.35;2.38;;;9.20;99.90;;;;;;5071958;28;20023;-64
2021/05/20 02:23:18;;;;;;;7.50;2.17;;;9.30;99.90;;;;;;5057721;28;20037;-65
2021/05/20 02:25:44;;;;;;;7.35;2.50;;;9.20;99.90;;;;;;5072140;28;20046;-65
2021/05/20 02:28:10;;;;;;;7.00;2.13;;;9.20;99.90;;;;;;5056915;28;20017;-64
2021/05/20 02:30:36;;;;;;;4.25;1.83;;;9.10;99.90;;;;;;5070111;28;20024;-65
2021/05/20 02:33:02;;;;;;;4.65;2.00;;;8.90;99.90;;;;;;5057723;28;20482;-64
2021/05/20 02:35:28;;;;;;;3.72;1.38;;;8.90;99.90;;;;;;5052433;28;20053;-64
2021/05/20 02:37:54;;;;;;;4.20;1.42;;;8.90;99.90;;;;;;5059160;28;20029;-64
2021/05/20 02:40:20;;;;;;;6.18;1.98;;;8.90;99.90;;;;;;5059648;28;20032;-64
2021/05/20 02:42:46;;;;;;;5.57;1.60;;;8.80;99.90;;;;;;5056551;28;20120;-64
2021/05/20 02:45:15;;;;;;;3.28;1.50;;;8.90;99.90;;;;;;5065021;28;20021;-64
2021/05/20 02:47:42;;;;;;;8.35;1.90;;;8.90;99.90;;;;;;5064819;28;20570;-64
2021/05/20 02:50:08;;;;;;;3.58;1.50;;;9.00;99.90;;;;;;5065721;28;20020;-65
2021/05/20 02:52:34;;;;;;;6.32;1.60;;;9.10;99.90;;;;;;5060467;28;20031;-64
2021/05/20 02:55:03;;;;;;;3.97;1.80;;;9.10;99.90;;;;;;5064606;28;20025;-65
2021/05/20 02:57:29;;;;;;;7.35;1.63;;;9.20;99.90;;;;;;5064334;28;20032;-64
2021/05/20 02:59:56;;;;;;;4.18;1.20;;;9.20;99.90;;;;;;5063844;28;20075;-64
2021/05/20 03:02:21;;;;;;;4.80;1.55;;;9.20;99.90;;;;;;5064622;28;20083;-64
2021/05/20 03:04:47;;;;;;;2.85;1.48;;;9.20;99.90;;;;;;5062797;28;20020;-64
2021/05/20 03:07:13;;;;;;;3.70;1.20;;;9.10;99.90;;;;;;5063576;28;20048;-64
2021/05/20 03:09:39;;;;;;;5.55;1.40;;;9.10;99.90;;;;;;5051017;28;20035;-64
2021/05/20 03:12:05;;;;;;;4.20;1.48;;;8.90;99.90;;;;;;5057455;28;20135;-65
2021/05/20 03:14:31;;;;;;;2.83;1.50;;;9.00;99.90;;;;;;5063471;28;20095;-65
2021/05/20 03:16:56;;;;;;;3.85;1.70;;;9.10;99.90;;;;;;5058952;28;20028;-64
2021/05/20 03:19:22;;;;;;;5.53;1.60;;;9.00;99.90;;;;;;5060767;28;20050;-65
2021/05/20 03:21:48;;;;;;;3.28;1.60;;;8.80;99.90;;;;;;5066752;28;20167;-65
2021/05/20 03:24:14;;;;;;;6.78;1.60;;;8.70;99.90;;;;;;5051934;28;20025;-64
2021/05/20 03:26:40;;;;;;;4.75;1.50;;;8.70;99.90;;;;;;5074971;28;20024;-65
2021/05/20 03:29:05;;;;;;;6.78;2.05;;;8.80;99.90;;;;;;5061147;28;20401;-65
2021/05/20 03:31:32;;;;;;;3.97;1.52;;;8.90;99.90;;;;;;5067685;28;20483;-64
2021/05/20 03:33:58;;;;;;;3.65;1.40;;;8.60;99.90;;;;;;5058673;28;20090;-64
2021/05/20 03:36:23;;;;;;;6.82;1.33;;;8.50;99.90;;;;;;5067894;28;20041;-65
2021/05/20 03:38:49;;;;;;;4.00;1.45;;;8.60;99.90;;;;;;5057145;28;20031;-65
2021/05/20 03:41:15;;;;;;;2.75;1.30;;;8.60;99.90;;;;;;5064211;28;20036;-65
2021/05/20 03:43:41;;;;;;;6.18;1.73;;;8.60;99.90;;;;;;5060470;28;20112;-65
2021/05/20 03:46:09;;;;;;;2.53;1.20;;;8.70;99.90;;;;;;5067664;28;20013;-66
2021/05/20 03:48:35;;;;;;;6.97;1.73;;;8.70;99.90;;;;;;5061618;28;20024;-65
2021/05/20 03:51:04;;;;;;;5.68;2.13;;;8.60;99.90;;;;;;5066258;28;20550;-65
2021/05/20 03:53:32;;;;;;;2.55;1.58;;;8.70;99.90;;;;;;5061209;28;20033;-65
2021/05/20 03:55:59;;;;;;;4.85;1.48;;;8.60;99.90;;;;;;5064253;28;20028;-66
2021/05/20 03:58:27;;;;;;;3.95;1.55;;;8.70;99.90;;;;;;5061134;28;20056;-65
2021/05/20 04:00:53;;;;;;;3.53;1.50;;;8.50;99.90;;;;;;5064080;28;20476;-65
2021/05/20 04:03:36;;;;;;;2.70;1.30;;;8.40;99.90;;;;;;5059848;28;20433;-65
2021/05/20 04:06:05;;;;;;;4.20;1.52;;;8.60;99.90;;;;;;5050087;28;20079;-66
2021/05/20 04:08:33;;;;;;;2.58;1.40;;;8.60;99.90;;;;;;5052475;28;20555;-65
2021/05/20 04:10:59;;;;;;;3.22;1.60;;;8.40;99.90;;;;;;5067766;28;20386;-65
2021/05/20 04:13:39;;;;;;;2.97;1.88;;;8.50;99.90;;;;;;5060640;28;20043;-65
2021/05/20 04:16:06;;;;;;;2.88;1.23;;;8.20;99.90;;;;;;5063009;28;20108;-65
2021/05/20 04:18:33;;;;;;;7.40;1.38;;;8.40;99.90;;;;;;5058672;28;20017;-65
2021/05/20 04:20:59;;;;;;;4.93;1.33;;;8.30;99.90;;;;;;5049348;28;20037;-65
2021/05/20 04:23:25;;;;;;;2.28;1.10;;;8.20;99.90;;;;;;5053033;28;20032;-65
2021/05/20 04:25:51;;;;;;;2.55;1.40;;;8.40;99.90;;;;;;5060053;28;20023;-65
2021/05/20 04:28:18;;;;;;;1.88;1.10;;;8.30;99.90;;;;;;5052302;28;20035;-65
2021/05/20 04:30:45;;;;;;;4.53;1.33;;;8.60;99.90;;;;;;5058335;28;20060;-65
2021/05/20 04:33:11;;;;;;;4.20;1.20;;;8.50;99.90;;;;;;5053978;28;20052;-65
2021/05/20 04:35:37;;;;;;;5.68;1.38;;;8.40;99.90;;;;;;5069587;28;20076;-65
2021/05/20 04:38:05;;;;;;;4.18;1.20;;;8.40;99.90;;;;;;5066796;28;20016;-65
2021/05/20 04:40:32;;;;;;;2.60;1.33;;;8.50;99.90;;;;;;5069449;28;20107;-65
2021/05/20 04:42:57;;;;;;;1.63;1.00;;;8.50;99.90;;;;;;5054605;28;20524;-65
2021/05/20 04:45:23;;;;;;;2.67;1.60;;;8.40;99.90;;;;;;5056848;28;20021;-65
2021/05/20 04:47:49;;;;;;;1.40;1.02;;;8.60;99.90;;;;;;5056554;28;20086;-65
2021/05/20 04:50:16;;;;;;;3.45;1.13;;;8.40;99.90;;;;;;5056731;28;20109;-65
2021/05/20 04:52:43;;;;;;;2.95;1.30;;;8.40;99.90;;;;;;5056704;28;20486;-66
2021/05/20 04:55:11;;;;;;;6.35;2.15;;;8.60;99.90;;;;;;5053301;28;20055;-65
2021/05/20 04:57:37;;;;;;;5.68;1.92;;;8.60;99.90;;;;;;5057233;28;20032;-65
2021/05/20 05:00:08;;;;;;;7.07;1.85;;;8.80;99.90;;;;;;5065964;28;20096;-65
2021/05/20 05:02:34;;;;;;;3.55;1.95;;;8.90;99.90;;;;;;5062042;28;20135;-65
2021/05/20 05:04:59;;;;;;;3.47;1.38;;;8.90;99.90;;;;;;5064536;28;20529;-65
2021/05/20 05:07:25;;;;;;;8.95;2.50;;;8.80;99.90;;;;;;5058649;28;20051;-65
2021/05/20 05:09:51;;;;;;;6.68;2.10;;;8.80;99.90;;;;;;5062350;28;20028;-66
2021/05/20 05:12:16;;;;;;;3.42;1.70;;;8.80;99.90;;;;;;5054007;28;20043;-66
2021/05/20 05:14:42;;;;;;;4.40;2.17;;;8.90;99.90;;;;;;5059760;28;20031;-65
2021/05/20 05:17:08;;;;;;;5.32;2.58;;;8.80;99.90;;;;;;5062541;28;20025;-65
2021/05/20 05:19:33;;;;;;;7.78;1.85;;;9.10;99.90;;;;;;5056309;28;20024;-71
2021/05/20 05:22:02;;;;;;;3.83;1.75;;;9.10;99.90;;;;;;5060016;28;20029;-65
2021/05/20 05:24:28;;;;;;;4.63;1.92;;;9.30;99.90;;;;;;5057416;28;20020;-65
2021/05/20 05:26:54;;;;;;;5.88;2.10;;;9.30;99.90;;;;;;5059376;28;20390;-66
2021/05/20 05:29:20;;;;;;;3.40;2.10;;;9.40;99.90;;;;;;5062220;28;20074;-66
2021/05/20 05:31:46;;;;;;;8.48;2.33;;;9.40;99.90;;;;;;5059298;28;20029;-65
2021/05/20 05:34:11;;;;;;;5.70;2.38;;;9.40;99.90;;;;;;5067562;28;20429;-65
2021/05/20 05:36:37;;;;;;;3.60;2.03;;;9.30;99.90;;;;;;5068831;28;20444;-65
2021/05/20 05:39:04;;;;;;;5.22;2.25;;;9.40;99.90;;;;;;5062511;28;20032;-65
2021/05/20 05:41:30;;;;;;;4.22;2.33;;;9.50;99.90;;;;;;5069479;28;20556;-65
2021/05/20 05:43:55;;;;;;;8.73;2.67;;;9.80;99.90;;;;;;5047356;28;20028;-65
2021/05/20 05:46:21;;;;;;;7.90;2.58;;;9.80;99.90;;;;;;5037541;28;20035;-65
2021/05/20 05:48:48;;;;;;;9.27;2.40;;;9.90;99.90;;;;;;5062178;28;20025;-65
2021/05/20 05:51:17;;;;;;;7.45;1.88;;;10.00;99.90;;;;;;5052737;28;20079;-63
2021/05/20 05:53:43;;;;;;;4.68;2.28;;;10.70;99.90;;;;;;5055664;28;20037;-63
2021/05/20 05:56:09;;;;;;;8.75;2.15;;;10.50;99.90;;;;;;5056563;28;20024;-62
2021/05/20 05:58:34;;;;;;;4.75;2.17;;;10.50;99.90;;;;;;5064410;28;20025;-62
2021/05/20 06:01:01;;;;;;;6.90;2.60;;;10.30;99.90;;;;;;5068804;28;20017;-62
2021/05/20 06:03:27;;;;;;;9.05;2.80;;;10.30;99.90;;;;;;5061127;28;20599;-62
2021/05/20 06:05:53;;;;;;;16.20;2.83;;;10.30;99.90;;;;;;5051944;28;20025;-62
2021/05/20 06:08:19;;;;;;;8.20;2.58;;;10.40;99.90;;;;;;5060501;28;20029;-62
2021/05/20 06:10:45;;;;;;;10.77;2.80;;;10.30;99.90;;;;;;5065174;28;20029;-62
2021/05/20 06:13:12;;;;;;;14.02;3.25;;;10.40;99.90;;;;;;5064532;28;20492;-62
2021/05/20 06:15:37;;;;;;;6.20;2.83;;;10.30;99.90;;;;;;5058761;28;20036;-63
2021/05/20 06:18:03;;;;;;;13.07;3.88;;;10.40;99.90;;;;;;5064110;28;20106;-62
2021/05/20 06:20:29;;;;;;;12.05;3.67;;;10.40;99.90;;;;;;5041324;28;20056;-62
2021/05/20 06:22:55;;;;;;;5.35;2.92;;;10.40;99.90;;;;;;5061613;28;20043;-62
2021/05/20 06:25:21;;;;;;;12.38;2.90;;;10.50;99.90;;;;;;5063513;28;20025;-62
2021/05/20 06:27:47;;;;;;;4.68;2.33;;;10.50;99.90;;;;;;5068541;28;20123;-63
2021/05/20 06:30:13;;;;;;;11.35;2.75;;;10.50;99.90;;;;;;5059188;28;20028;-62
2021/05/20 06:32:38;;;;;;;10.38;2.70;;;10.50;99.90;;;;;;5060267;28;20044;-62
2021/05/20 06:35:05;;;;;;;5.82;2.88;;;10.30;99.90;;;;;;5069629;28;20036;-62
2021/05/20 06:37:32;;;;;;;7.35;2.55;;;10.30;99.90;;;;;;5060236;28;20116;-62
2021/05/20 06:39:57;;;;;;;7.78;2.85;;;10.60;99.90;;;;;;5062593;28;20024;-62
2021/05/20 06:42:23;;;;;;;11.43;2.60;;;10.60;99.90;;;;;;5064700;28;20036;-62
2021/05/20 06:44:49;;;;;;;15.13;3.90;;;10.70;99.90;;;;;;5057132;28;20026;-62
2021/05/20 06:47:15;;;;;;;19.83;3.10;;;10.90;99.90;;;;;;5062780;28;20024;-62
2021/05/20 06:49:40;;;;;;;14.27;2.92;;;10.80;99.90;;;;;;5055142;28;20043;-62
2021/05/20 06:52:07;;;;;;;16.60;3.50;;;11.00;99.90;;;;;;5052359;28;20470;-62
2021/05/20 06:54:32;;;;;;;9.88;3.15;;;10.80;99.90;;;;;;5057693;28;20119;-62
2021/05/20 06:57:02;;;;;;;18.58;4.40;;;11.10;99.90;;;;;;5053466;28;20128;-62
2021/05/20 07:02:12;;;;;;;12.25;2.75;;;11.30;99.90;;;;;;5054938;28;20035;-62
2021/05/20 07:04:37;;;;;;;9.60;2.63;;;11.20;99.90;;;;;;5066984;28;20016;-62
2021/05/20 07:07:04;;;;;;;14.57;4.53;;;11.30;99.90;;;;;;5065876;28;20107;-62
2021/05/20 07:09:36;;;;;;;9.95;4.35;;;11.50;99.90;;;;;;5078362;28;20460;-62
2021/05/20 07:12:03;;;;;;;13.43;4.63;;;11.70;99.90;;;;;;5061977;28;20029;-62
2021/05/20 07:14:28;;;;;;;9.20;4.38;;;11.80;99.90;;;;;;5061905;28;20029;-62
2021/05/20 07:16:54;;;;;;;12.38;4.53;;;11.80;99.90;;;;;;5065415;28;20520;-62
2021/05/20 07:19:20;;;;;;;10.20;3.35;;;12.00;99.90;;;;;;5061573;28;20036;-62
2021/05/20 07:21:47;;;;;;;9.73;1.95;;;12.00;99.90;;;;;;5052238;28;20107;-62
2021/05/20 07:24:12;;;;;;;9.55;2.50;;;12.10;99.90;;;;;;5059479;28;20031;-62
2021/05/20 07:26:38;;;;;;;3.60;1.48;;;12.30;99.90;;;;;;5064059;28;20025;-62
2021/05/20 07:29:05;;;;;;;3.95;1.10;;;12.30;99.90;;;;;;5040585;28;20029;-62
2021/05/20 07:31:32;;;;;;;10.00;1.38;;;12.40;99.90;;;;;;5067387;28;20029;-62
2021/05/20 07:33:57;;;;;;;9.13;1.55;;;12.30;99.90;;;;;;5047816;28;20481;-62
2021/05/20 07:36:23;;;;;;;7.45;1.27;;;12.50;99.90;;;;;;5056002;28;20044;-62
2021/05/20 07:38:49;;;;;;;8.00;1.10;;;12.60;99.90;;;;;;5059423;28;20025;-61
2021/05/20 07:41:16;;;;;;;4.82;1.13;;;12.70;99.90;;;;;;5066498;28;20024;-62
2021/05/20 07:43:42;;;;;;;6.20;1.20;;;12.80;99.90;;;;;;5060403;28;20018;-60
2021/05/20 07:46:08;;;;;;;4.13;0.90;;;12.90;99.90;;;;;;5063832;28;20515;-60
2021/05/20 07:48:34;;;;;;;7.55;1.40;;;13.00;99.90;;;;;;5072275;28;20039;-60
2021/05/20 07:51:01;;;;;;;8.20;1.40;;;13.10;99.90;;;;;;5057316;28;20436;-61
2021/05/20 07:53:27;;;;;;;5.80;1.38;;;13.00;99.90;;;;;;5062661;28;20029;-61
2021/05/20 07:55:52;;;;;;;6.72;1.40;;;13.30;99.90;;;;;;5060536;28;20122;-62
2021/05/20 07:58:19;;;;;;;4.10;0.98;;;13.40;99.90;;;;;;5047676;28;20148;-62
2021/05/20 08:00:44;;;;;;;8.48;1.30;;;13.50;99.90;;;;;;5059212;28;20028;-62
2021/05/20 08:03:24;;;;;;;7.82;1.25;;;13.50;99.90;;;;;;5053740;28;20041;-62
2021/05/20 08:11:09;;;;;;;3.90;1.13;;;13.80;99.90;;;;;;5064835;28;20016;-64
2021/05/20 08:13:35;;;;;;;4.32;1.27;;;14.00;99.90;;;;;;5054644;28;20029;-64
2021/05/20 08:16:05;;;;;;;4.60;1.10;;;13.90;99.90;;;;;;5069337;28;20020;-64
2021/05/20 08:18:31;;;;;;;4.00;1.00;;;14.20;99.90;;;;;;5056539;28;20624;-64
2021/05/20 08:20:58;;;;;;;5.35;0.75;;;14.40;99.90;;;;;;5062671;28;20021;-65
2021/05/20 08:23:24;;;;;;;5.55;0.98;;;14.40;99.90;;;;;;5057335;28;20067;-65
2021/05/20 08:25:51;;;;;;;5.13;1.05;;;14.50;99.90;;;;;;5041437;28;20025;-64
2021/05/20 08:28:16;;;;;;;5.78;1.02;;;14.50;99.90;;;;;;5049334;28;20221;-65
2021/05/20 08:30:43;;;;;;;4.25;0.80;;;14.20;99.90;;;;;;5063529;28;20017;-61
2021/05/20 08:33:08;;;;;;;10.85;1.45;;;14.70;99.90;;;;;;5062683;28;20017;-60
2021/05/20 08:35:34;;;;;;;6.93;1.10;;;14.50;99.90;;;;;;5060138;28;20568;-60
2021/05/20 08:38:00;;;;;;;5.13;1.13;;;14.60;99.90;;;;;;5055156;28;20112;-61
2021/05/20 08:40:26;;;;;;;3.42;0.93;;;14.70;99.90;;;;;;5061064;28;20052;-60
2021/05/20 08:42:52;;;;;;;4.88;1.27;;;14.80;99.90;;;;;;5056175;28;20501;-60
2021/05/20 08:45:24;;;;;;;8.45;1.13;;;14.60;99.90;;;;;;5067354;28;20040;-60
2021/05/20 08:47:52;;;;;;;6.43;1.10;;;14.90;99.90;;;;;;5064246;28;20411;-60
2021/05/20 08:50:19;;;;;;;4.90;1.15;;;15.10;99.90;;;;;;5051960;28;20505;-60
2021/05/20 08:52:45;;;;;;;5.25;1.10;;;15.30;99.90;;;;;;5069125;28;20031;-61
2021/05/20 08:55:17;;;;;;;5.82;0.90;;;15.60;99.90;;;;;;5065219;28;20016;-62
2021/05/20 08:57:44;;;;;;;4.15;1.48;;;15.70;99.90;;;;;;5055106;28;20032;-61
2021/05/20 09:00:16;;;;;;;2.80;0.95;;;15.70;99.90;;;;;;5052413;28;20012;-61
2021/05/20 09:02:41;;;;;;;4.30;1.13;;;15.70;99.90;;;;;;5057398;28;20037;-61
2021/05/20 09:05:16;;;;;;;3.22;1.20;;;15.70;99.90;;;;;;5046945;28;20021;-62
2021/05/20 09:07:48;;;;;;;11.02;1.25;;;15.40;99.90;;;;;;5060580;28;20028;-61
2021/05/20 09:10:19;;;;;;;5.88;1.10;;;15.70;99.90;;;;;;5064287;28;20033;-61
2021/05/20 09:12:46;;;;;;;2.78;1.10;;;15.70;99.90;;;;;;5059912;28;20032;-61
2021/05/20 09:15:20;;;;;;;3.45;0.90;;;15.70;99.90;;;;;;5050220;28;20047;-61
2021/05/20 09:17:47;;;;;;;4.90;1.25;;;15.90;99.90;;;;;;5058655;28;20104;-61
2021/05/20 09:20:13;;;;;;;4.72;1.17;;;15.90;99.90;;;;;;5063096;28;20059;-61
2021/05/20 09:22:39;;;;;;;3.53;1.00;;;16.10;99.90;;;;;;5058818;28;20132;-62
2021/05/20 09:25:08;;;;;;;5.07;1.17;;;16.20;99.90;;;;;;5056422;28;20096;-61
2021/05/20 09:27:41;;;;;;;4.88;1.15;;;16.40;99.90;;;;;;5054836;28;20017;-61
2021/05/20 09:30:21;;;;;;;3.72;1.27;;;16.40;99.90;;;;;;5055863;28;20017;-61
2021/05/20 09:32:49;;;;;;;4.05;1.10;;;16.60;99.90;;;;;;5061197;28;20090;-61
2021/05/20 09:35:17;;;;;;;5.18;1.02;;;16.40;99.90;;;;;;5056661;28;20557;-61
2021/05/20 09:37:49;;;;;;;4.15;1.00;;;16.40;99.90;;;;;;5048035;28;20029;-61
2021/05/20 09:40:18;;;;;;;3.97;1.30;;;16.70;99.90;;;;;;5052088;28;20041;-61
2021/05/20 09:42:46;;;;;;;4.88;1.05;;;17.20;99.90;;;;;;5051190;28;20045;-62
2021/05/20 09:45:14;;;;;;;3.97;0.95;;;17.00;99.90;;;;;;5058639;28;20506;-61
2021/05/20 09:47:42;;;;;;;7.10;1.50;;;16.70;99.90;;;;;;5055998;28;20496;-60
2021/05/20 09:50:10;;;;;;;5.00;1.20;;;16.90;99.90;;;;;;5057180;28;20074;-60
2021/05/20 09:52:36;;;;;;;6.18;1.00;;;17.30;99.90;;;;;;5064882;28;20029;-61
2021/05/20 09:55:15;;;;;;;5.45;1.10;;;16.80;99.90;;;;;;5068994;28;20025;-61
2021/05/20 09:57:40;;;;;;;2.90;1.35;;;17.20;99.90;;;;;;5051848;28;20025;-61
2021/05/20 10:00:19;;;;;;;2.75;1.20;;;17.70;99.90;;;;;;5055891;28;20043;-60
2021/05/20 10:02:46;;;;;;;4.28;1.27;;;17.90;99.90;;;;;;5054757;28;20032;-61
2021/05/20 10:05:22;;;;;;;3.92;1.30;;;17.70;99.90;;;;;;5056010;28;20043;-60
2021/05/20 10:07:48;;;;;;;;;;;17.30;99.90;;;;;;5057325;28;20033;-62
2021/05/20 10:10:15;;;;;;;3.00;1.10;;;17.50;99.90;;;;;;5055709;28;19970;-60
2021/05/20 10:12:45;;;;;;;3.80;1.00;;;17.40;99.90;;;;;;5060715;28;20032;-61
2021/05/20 10:15:17;;;;;;;5.78;1.25;;;17.90;99.90;;;;;;5069220;28;20100;-61
2021/05/20 10:17:44;;;;;;;6.38;1.40;;;17.90;99.90;;;;;;5067163;28;20024;-60
2021/05/20 10:20:14;;;;;;;2.78;1.10;;;18.50;99.90;;;;;;5067978;28;20493;-61
2021/05/20 10:22:40;;;;;;;5.95;1.35;;;18.60;99.90;;;;;;5065770;28;20032;-61
2021/05/20 10:25:06;;;;;;;3.80;1.10;;;18.40;99.90;;;;;;5074646;28;20484;-60
2021/05/20 10:27:35;;;;;;;6.38;1.48;;;18.30;99.90;;;;;;5061377;28;20029;-61
2021/05/20 10:30:01;;;;;;;2.88;1.13;;;18.60;99.90;;;;;;5059147;28;20533;-61
2021/05/20 10:32:29;;;;;;;5.45;1.35;;;18.60;99.90;;;;;;5054257;28;20106;-61
2021/05/20 10:34:59;;;;;;;3.33;1.23;;;18.70;99.90;;;;;;5052738;28;20481;-61
2021/05/20 10:37:28;;;;;;;2.35;1.35;;;19.00;99.90;;;;;;5062015;28;20037;-62
2021/05/20 10:39:54;;;;;;;3.50;1.10;;;19.00;99.90;;;;;;5053569;28;20018;-61
2021/05/20 10:42:39;;;;;;;3.40;1.20;;;19.20;99.90;;;;;;5064972;28;20046;-62
2021/05/20 10:45:15;;;;;;;3.30;1.05;;;19.10;99.90;;;;;;5065905;28;20032;-62
2021/05/20 10:48:03;;;;;;;2.70;0.68;;;19.70;99.90;;;;;;5062886;28;20032;-62
2021/05/20 10:51:05;;;;;;;6.63;1.02;;;19.10;99.90;;;;;;5068278;28;20036;-62
2021/05/20 10:53:48;;;;;;;4.22;1.58;;;19.40;99.90;;;;;;5025703;28;20116;-61
2021/05/20 10:56:22;;;;;;;3.78;0.85;;;19.60;99.90;;;;;;5053059;28;20037;-62
2021/05/20 10:58:49;;;;;;;3.17;0.90;;;19.90;99.90;;;;;;5057287;28;20021;-61
2021/05/20 11:01:21;;;;;;;2.83;0.82;;;20.00;99.90;;;;;;5069765;28;20564;-62
2021/05/20 11:03:53;;;;;;;5.65;1.35;;;20.10;99.90;;;;;;5061466;28;20511;-62
2021/05/20 11:06:23;;;;;;;2.85;0.90;;;20.00;98.20;;;;;;5069260;28;20025;-62
2021/05/20 11:08:48;;;;;;;3.92;1.00;;;19.80;98.50;;;;;;5054334;28;20059;-61
2021/05/20 11:11:29;;;;;;;3.35;1.00;;;19.50;99.00;;;;;;5068283;28;20044;-62
2021/05/20 11:13:55;;;;;;;2.15;0.80;;;20.10;99.90;;;;;;5059771;28;20090;-61
2021/05/20 11:16:30;;;;;;;5.07;1.05;;;20.10;99.30;;;;;;5065564;28;20024;-62
2021/05/20 11:19:21;;;;;;;3.37;0.70;;;20.10;99.00;;;;;;5062920;28;20104;-62
2021/05/20 11:21:59;;;;;;;7.50;1.48;;;20.50;99.40;;;;;;5051481;28;20283;-62
2021/05/20 11:24:26;;;;;;;2.95;0.98;;;20.90;99.40;;;;;;5042196;28;20075;-62
2021/05/20 11:26:53;;;;;;;8.68;1.23;;;20.80;98.50;;;;;;5062515;28;20024;-62
2021/05/20 11:29:24;;;;;;;6.15;1.27;;;21.20;99.30;;;;;;5038892;28;20032;-62
2021/05/20 11:32:04;;;;;;;4.03;1.02;;;20.90;99.30;;;;;;5066552;28;20075;-62
2021/05/20 11:37:20;;;;;;;2.55;1.05;;;21.40;98.60;;;;;;5063055;28;20086;-61
2021/05/20 11:39:46;;;;;;;4.75;0.93;;;20.90;97.90;;;;;;5062347;28;20027;-62
2021/05/20 11:42:19;;;;;;;2.78;0.90;;;21.00;98.00;;;;;;5062545;28;20024;-61
2021/05/20 11:44:44;;;;;;;2.30;0.70;;;21.40;98.30;;;;;;5064575;28;20020;-61
2021/05/20 11:47:14;;;;;;;1.65;0.63;;;20.80;94.80;;;;;;5053090;28;20062;-61
2021/05/20 11:49:40;;;;;;;6.63;0.93;;;21.10;97.00;;;;;;5051224;28;20151;-61
2021/05/20 11:52:08;;;;;;;2.72;1.17;;;21.40;97.00;;;;;;5062180;28;20032;-61
2021/05/20 11:54:39;;;;;;;7.65;0.90;;;21.70;97.20;;;;;;5050742;28;20048;-61
2021/05/20 11:57:07;;;;;;;2.92;0.85;;;21.70;95.80;;;;;;5064405;28;20027;-61
2021/05/20 11:59:39;;;;;;;2.47;0.68;;;21.50;96.90;;;;;;5061831;28;20028;-61
2021/05/20 12:02:13;;;;;;;2.28;0.70;;;22.00;96.30;;;;;;5066574;28;20040;-61
2021/05/20 12:04:39;;;;;;;2.03;0.90;;;21.80;94.70;;;;;;5062523;28;20028;-61
2021/05/20 12:07:05;;;;;;;7.18;0.90;;;22.50;96.60;;;;;;5065597;28;20035;-61
2021/05/20 12:09:31;;;;;;;3.38;0.70;;;23.00;96.50;;;;;;5057900;28;20027;-61
2021/05/20 12:12:07;;;;;;;7.80;0.70;;;22.70;94.50;;;;;;5057973;28;20024;-61
2021/05/20 12:14:34;;;;;;;4.35;0.60;;;22.70;95.70;;;;;;5056931;28;20021;-62
2021/05/20 12:17:18;;;;;;;3.15;0.90;;;23.40;94.90;;;;;;5057803;28;20060;-62
2021/05/20 12:19:47;;;;;;;4.40;0.60;;;22.60;92.20;;;;;;5065577;28;20530;-62
2021/05/20 12:22:28;;;;;;;1.17;0.60;;;22.80;93.50;;;;;;5056845;28;20114;-63
2021/05/20 12:24:56;;;;;;;2.78;0.60;;;23.40;93.90;;;;;;5069240;28;20024;-62
2021/05/20 12:27:30;;;;;;;0.98;0.40;;;23.40;90.60;;;;;;5060266;28;20100;-61
2021/05/20 12:29:56;;;;;;;1.63;0.55;;;23.30;89.70;;;;;;5059635;28;20101;-61
2021/05/20 12:32:25;;;;;;;3.92;0.60;;;22.60;89.60;;;;;;5057774;28;20401;-61
2021/05/20 12:35:11;;;;;;;1.25;0.70;;;23.00;91.60;;;;;;5053384;28;20067;-62
2021/05/20 12:37:47;;;;;;;5.70;0.82;;;23.00;90.50;;;;;;5058637;28;20058;-61
2021/05/20 12:40:19;;;;;;;2.03;0.55;;;23.50;91.90;;;;;;5057387;28;20100;-61
2021/05/20 12:43:03;;;;;;;1.00;0.50;;;23.50;90.90;;;;;;5050738;28;20127;-62
2021/05/20 12:45:31;;;;;;;2.45;0.57;;;24.00;91.70;;;;;;5057455;28;20063;-62
2021/05/20 12:47:56;;;;;;;3.45;0.50;;;24.00;90.40;;;;;;5058947;28;20381;-61
2021/05/20 12:50:33;;;;;;;2.17;0.70;;;23.80;91.20;;;;;;5065073;28;20020;-61
2021/05/20 12:52:59;;;;;;;2.50;0.60;;;23.70;91.10;;;;;;5058441;28;20108;-61
2021/05/20 12:55:33;;;;;;;2.45;0.70;;;23.80;90.60;;;;;;5057490;28;20416;-62
2021/05/20 12:58:00;;;;;;;2.08;0.60;;;23.60;90.30;;;;;;5060892;28;20458;-62
2021/05/20 13:00:49;;;;;;;4.78;0.60;;;24.40;88.10;;;;;;5057023;28;20024;-62
2021/05/20 13:03:14;;;;;;;1.92;0.60;;;24.20;88.60;;;;;;5058973;28;20045;-61
2021/05/20 13:05:51;;;;;;;5.70;0.63;;;23.90;90.40;;;;;;5062567;28;20078;-62